createdAt,value
2017-12-06T00:00:24.488Z,0.00
2017-12-06T00:01:45.456Z,0.00
2017-12-06T00:02:24.421Z,0.00
2017-12-06T00:03:24.411Z,0.00
2017-12-06T00:04:24.383Z,0.00
2017-12-06T00:05:24.358Z,0.00
2017-12-06T00:06:24.328Z,0.00
2017-12-06T00:07:45.298Z,0.00
2017-12-06T00:08:24.273Z,0.00
2017-12-06T00:09:24.262Z,0.00
2017-12-06T00:10:24.231Z,0.00
2017-12-06T00:11:24.243Z,0.00
2017-12-06T00:12:24.213Z,0.00
2017-12-06T00:13:45.167Z,0.00
2017-12-06T00:14:24.147Z,0.00
2017-12-06T00:15:24.119Z,0.00
2017-12-06T00:16:24.117Z,0.00
2017-12-06T00:17:24.080Z,0.00
2017-12-06T00:18:24.062Z,0.00
2017-12-06T00:19:45.036Z,0.00
2017-12-06T00:20:24.001Z,0.00
2017-12-06T00:21:23.990Z,0.00
2017-12-06T00:22:23.968Z,0.00
2017-12-06T00:23:23.945Z,0.00
2017-12-06T00:24:23.920Z,0.00
2017-12-06T00:25:44.891Z,0.00
2017-12-06T00:26:23.867Z,0.00
2017-12-06T00:27:23.885Z,0.00
2017-12-06T00:28:23.821Z,0.00
2017-12-06T00:29:23.806Z,0.00
2017-12-06T00:30:23.789Z,0.00
2017-12-06T00:31:44.752Z,0.00
2017-12-06T00:32:23.738Z,0.00
2017-12-06T00:33:23.716Z,0.00
2017-12-06T00:34:23.688Z,0.00
2017-12-06T00:35:23.670Z,0.00
2017-12-06T00:36:23.637Z,0.00
2017-12-06T00:37:44.632Z,0.00
2017-12-06T00:38:23.596Z,0.00
2017-12-06T00:39:23.567Z,0.00
2017-12-06T00:40:23.566Z,0.00
2017-12-06T00:41:23.534Z,0.00
2017-12-06T00:42:23.512Z,0.00
2017-12-06T00:43:44.475Z,0.00
2017-12-06T00:44:23.454Z,0.00
2017-12-06T00:45:23.437Z,0.00
2017-12-06T00:46:23.410Z,0.00
2017-12-06T00:47:23.395Z,0.00
2017-12-06T00:48:23.373Z,0.00
2017-12-06T00:49:44.350Z,0.00
2017-12-06T00:50:23.316Z,0.00
2017-12-06T00:51:23.298Z,0.00
2017-12-06T00:52:23.279Z,0.00
2017-12-06T00:53:23.277Z,0.00
2017-12-06T00:54:23.235Z,0.00
2017-12-06T00:55:44.214Z,0.00
2017-12-06T00:56:23.185Z,0.00
2017-12-06T00:57:23.170Z,0.00
2017-12-06T00:58:23.142Z,0.00
2017-12-06T00:59:23.124Z,0.00
2017-12-06T01:00:23.087Z,0.00
2017-12-06T01:01:44.089Z,0.00
2017-12-06T01:02:23.041Z,0.00
2017-12-06T01:03:23.029Z,0.00
2017-12-06T01:04:23.004Z,0.00
2017-12-06T01:05:22.975Z,0.00
2017-12-06T01:06:22.957Z,0.00
2017-12-06T01:07:43.941Z,0.00
2017-12-06T01:08:22.923Z,0.00
2017-12-06T01:09:23.396Z,0.00
2017-12-06T01:10:22.863Z,0.00
2017-12-06T01:11:22.853Z,0.00
2017-12-06T01:12:22.821Z,0.00
2017-12-06T01:13:43.833Z,0.00
2017-12-06T01:14:22.781Z,0.00
2017-12-06T01:15:22.745Z,0.00
2017-12-06T01:16:22.744Z,0.00
2017-12-06T01:17:22.710Z,0.00
2017-12-06T01:18:22.681Z,0.00
2017-12-06T01:19:43.660Z,0.00
2017-12-06T01:20:22.641Z,0.00
2017-12-06T01:21:22.615Z,0.00
2017-12-06T01:22:22.639Z,0.00
2017-12-06T01:23:22.574Z,0.00
2017-12-06T01:24:22.551Z,0.00
2017-12-06T01:25:43.527Z,0.00
2017-12-06T01:26:22.490Z,0.00
2017-12-06T01:27:22.484Z,0.00
2017-12-06T01:28:22.459Z,0.00
2017-12-06T01:29:22.425Z,0.00
2017-12-06T01:30:22.391Z,0.00
2017-12-06T01:31:43.387Z,0.00
2017-12-06T01:32:22.349Z,0.00
2017-12-06T01:33:22.385Z,0.00
2017-12-06T01:34:22.310Z,0.00
2017-12-06T01:35:22.314Z,0.00
2017-12-06T01:36:22.259Z,0.00
2017-12-06T01:37:43.263Z,0.00
2017-12-06T01:38:22.228Z,0.00
2017-12-06T01:39:22.195Z,0.00
2017-12-06T01:40:22.212Z,0.00
2017-12-06T01:41:22.145Z,0.00
2017-12-06T01:42:22.143Z,0.00
2017-12-06T01:43:43.102Z,0.00
2017-12-06T01:44:22.077Z,0.00
2017-12-06T01:45:22.074Z,0.00
2017-12-06T01:46:22.054Z,0.00
2017-12-06T01:47:22.024Z,0.00
2017-12-06T01:48:22.000Z,0.00
2017-12-06T01:49:42.974Z,0.00
2017-12-06T01:50:21.941Z,0.00
2017-12-06T01:51:21.915Z,0.00
2017-12-06T01:52:21.925Z,0.00
2017-12-06T01:53:21.869Z,0.00
2017-12-06T01:54:21.862Z,0.00
2017-12-06T01:55:42.829Z,0.00
2017-12-06T01:56:21.809Z,0.00
2017-12-06T01:57:21.806Z,0.00
2017-12-06T01:58:21.783Z,0.00
2017-12-06T01:59:21.744Z,0.00
2017-12-06T02:00:21.704Z,0.00
2017-12-06T02:01:42.691Z,0.00
2017-12-06T02:02:21.691Z,0.00
2017-12-06T02:03:21.634Z,0.00
2017-12-06T02:04:21.627Z,0.00
2017-12-06T02:05:21.596Z,0.00
2017-12-06T02:06:21.589Z,0.00
2017-12-06T02:07:42.574Z,0.00
2017-12-06T02:08:21.520Z,0.00
2017-12-06T02:09:21.518Z,0.00
2017-12-06T02:10:21.473Z,0.00
2017-12-06T02:11:21.459Z,0.00
2017-12-06T02:12:21.431Z,0.00
2017-12-06T02:13:42.410Z,0.00
2017-12-06T02:14:21.436Z,0.00
2017-12-06T02:15:21.371Z,0.00
2017-12-06T02:16:21.362Z,0.00
2017-12-06T02:17:21.331Z,0.00
2017-12-06T02:18:21.302Z,0.00
2017-12-06T02:19:42.278Z,0.00
2017-12-06T02:20:21.295Z,0.00
2017-12-06T02:21:21.226Z,0.00
2017-12-06T02:22:21.203Z,0.00
2017-12-06T02:23:21.201Z,0.00
2017-12-06T02:24:21.160Z,0.00
2017-12-06T02:25:42.139Z,0.00
2017-12-06T02:26:21.110Z,0.00
2017-12-06T02:27:21.080Z,0.00
2017-12-06T02:28:21.089Z,0.00
2017-12-06T02:29:21.053Z,0.00
2017-12-06T02:30:21.032Z,0.00
2017-12-06T02:31:41.993Z,0.00
2017-12-06T02:32:21.014Z,0.00
2017-12-06T02:33:20.969Z,0.00
2017-12-06T02:34:20.936Z,0.00
2017-12-06T02:35:20.938Z,0.00
2017-12-06T02:36:20.877Z,0.00
2017-12-06T02:37:41.866Z,0.00
2017-12-06T02:38:20.845Z,0.00
2017-12-06T02:39:20.815Z,0.00
2017-12-06T02:40:20.798Z,0.00
2017-12-06T02:41:20.771Z,0.00
2017-12-06T02:42:20.763Z,0.00
2017-12-06T02:43:41.727Z,0.00
2017-12-06T02:44:20.706Z,0.00
2017-12-06T02:45:20.693Z,0.00
2017-12-06T02:46:20.653Z,0.00
2017-12-06T02:47:20.619Z,0.00
2017-12-06T02:48:20.652Z,0.00
2017-12-06T02:49:41.605Z,0.00
2017-12-06T02:50:20.575Z,0.00
2017-12-06T02:51:20.541Z,0.00
2017-12-06T02:52:20.547Z,0.00
2017-12-06T02:53:20.497Z,0.00
2017-12-06T02:54:20.472Z,0.00
2017-12-06T02:55:41.464Z,0.00
2017-12-06T02:56:20.424Z,0.00
2017-12-06T02:57:20.429Z,0.00
2017-12-06T02:58:20.380Z,0.00
2017-12-06T02:59:20.352Z,0.00
2017-12-06T03:00:20.352Z,0.00
2017-12-06T03:01:44.288Z,0.00
2017-12-06T03:02:20.659Z,0.00
2017-12-06T03:03:20.501Z,0.00
2017-12-06T03:04:20.263Z,0.00
2017-12-06T03:05:20.223Z,0.00
2017-12-06T03:06:20.187Z,0.00
2017-12-06T03:07:41.185Z,0.00
2017-12-06T03:08:20.171Z,0.00
2017-12-06T03:09:20.135Z,0.00
2017-12-06T03:10:20.119Z,0.00
2017-12-06T03:11:20.077Z,0.00
2017-12-06T03:12:20.075Z,0.00
2017-12-06T03:13:41.029Z,0.00
2017-12-06T03:14:20.025Z,0.00
2017-12-06T03:15:19.994Z,0.00
2017-12-06T03:16:19.965Z,0.00
2017-12-06T03:17:19.942Z,0.00
2017-12-06T03:18:19.940Z,0.00
2017-12-06T03:19:40.900Z,0.00
2017-12-06T03:20:19.876Z,0.00
2017-12-06T03:21:19.853Z,0.00
2017-12-06T03:22:19.831Z,0.00
2017-12-06T03:23:19.817Z,0.00
2017-12-06T03:24:19.788Z,0.00
2017-12-06T03:25:40.791Z,0.00
2017-12-06T03:26:19.766Z,0.00
2017-12-06T03:27:19.741Z,0.00
2017-12-06T03:28:19.691Z,0.00
2017-12-06T03:29:19.682Z,0.00
2017-12-06T03:30:19.652Z,0.00
2017-12-06T03:31:40.624Z,0.00
2017-12-06T03:32:19.600Z,0.00
2017-12-06T03:33:19.610Z,0.00
2017-12-06T03:34:19.563Z,0.00
2017-12-06T03:35:23.414Z,0.00
2017-12-06T03:36:19.542Z,0.00
2017-12-06T03:37:40.506Z,0.00
2017-12-06T03:38:19.451Z,0.00
2017-12-06T03:39:19.458Z,0.00
2017-12-06T03:40:19.458Z,0.00
2017-12-06T03:41:19.390Z,0.00
2017-12-06T03:42:19.392Z,0.00
2017-12-06T03:43:40.371Z,0.00
2017-12-06T03:44:19.491Z,0.00
2017-12-06T03:45:19.372Z,0.00
2017-12-06T03:46:19.368Z,0.00
2017-12-06T03:47:19.266Z,0.00
2017-12-06T03:48:19.242Z,0.00
2017-12-06T03:49:40.231Z,0.00
2017-12-06T03:50:19.215Z,0.00
2017-12-06T03:51:19.158Z,0.00
2017-12-06T03:52:19.130Z,0.00
2017-12-06T03:53:26.949Z,0.00
2017-12-06T03:54:19.164Z,0.00
2017-12-06T03:55:40.117Z,0.00
2017-12-06T03:56:19.079Z,0.00
2017-12-06T03:57:19.045Z,0.00
2017-12-06T03:58:19.035Z,0.00
2017-12-06T03:59:18.974Z,0.00
2017-12-06T04:00:22.974Z,0.00
2017-12-06T04:01:39.954Z,0.00
2017-12-06T04:02:19.485Z,0.00
2017-12-06T04:03:21.488Z,0.00
2017-12-06T04:04:18.896Z,0.00
2017-12-06T04:05:18.845Z,0.00
2017-12-06T04:06:18.818Z,0.00
2017-12-06T04:07:39.823Z,0.00
2017-12-06T04:08:18.806Z,0.00
2017-12-06T04:09:18.776Z,0.00
2017-12-06T04:10:18.732Z,0.00
2017-12-06T04:11:19.364Z,0.00
2017-12-06T04:12:18.719Z,0.00
2017-12-06T04:13:43.456Z,0.00
2017-12-06T04:14:18.684Z,0.00
2017-12-06T04:15:18.646Z,0.00
2017-12-06T04:16:18.586Z,0.00
2017-12-06T04:17:18.565Z,0.00
2017-12-06T04:18:18.581Z,0.00
2017-12-06T04:19:39.581Z,0.00
2017-12-06T04:20:18.520Z,0.00
2017-12-06T04:21:18.507Z,0.00
2017-12-06T04:22:18.479Z,0.00
2017-12-06T04:23:18.446Z,0.00
2017-12-06T04:24:18.439Z,0.00
2017-12-06T04:25:39.418Z,0.00
2017-12-06T04:26:18.382Z,0.00
2017-12-06T04:27:18.356Z,0.00
2017-12-06T04:28:18.342Z,0.00
2017-12-06T04:29:21.976Z,0.00
2017-12-06T04:30:21.962Z,0.00
2017-12-06T04:31:39.268Z,0.00
2017-12-06T04:32:18.278Z,0.00
2017-12-06T04:33:18.225Z,0.00
2017-12-06T04:34:18.201Z,0.00
2017-12-06T04:35:18.186Z,0.00
2017-12-06T04:36:18.175Z,0.00
2017-12-06T04:37:39.121Z,0.00
2017-12-06T04:38:18.099Z,0.00
2017-12-06T04:39:18.056Z,0.00
2017-12-06T04:40:18.116Z,0.00
2017-12-06T04:41:18.036Z,0.00
2017-12-06T04:42:18.034Z,0.00
2017-12-06T04:43:41.971Z,0.00
2017-12-06T04:44:17.976Z,0.00
2017-12-06T04:45:21.525Z,0.00
2017-12-06T04:46:17.915Z,0.00
2017-12-06T04:47:17.864Z,0.00
2017-12-06T04:48:17.861Z,0.00
2017-12-06T04:49:43.438Z,0.00
2017-12-06T04:50:21.449Z,0.00
2017-12-06T04:51:17.786Z,0.00
2017-12-06T04:52:22.427Z,0.00
2017-12-06T04:53:17.739Z,0.00
2017-12-06T04:54:17.710Z,0.00
2017-12-06T04:55:54.508Z,0.00
2017-12-06T04:56:17.739Z,0.00
2017-12-06T04:57:21.447Z,0.00
2017-12-06T04:58:17.635Z,0.00
2017-12-06T04:59:17.634Z,0.00
2017-12-06T05:00:17.598Z,0.00
2017-12-06T05:01:38.556Z,0.00
2017-12-06T05:02:17.601Z,0.00
2017-12-06T05:03:17.502Z,0.00
2017-12-06T05:04:17.491Z,0.00
2017-12-06T05:05:25.467Z,0.00
2017-12-06T05:06:17.434Z,0.00
2017-12-06T05:07:38.434Z,0.00
2017-12-06T05:08:19.947Z,0.00
2017-12-06T05:09:17.399Z,0.00
2017-12-06T05:10:39.996Z,0.00
2017-12-06T05:12:51.641Z,0.00
2017-12-06T05:13:53.004Z,0.00
2017-12-06T05:14:52.837Z,0.00
2017-12-06T05:15:53.498Z,0.00
2017-12-06T05:16:52.466Z,0.00
2017-12-06T05:17:51.038Z,0.00
2017-12-06T05:18:50.977Z,0.00
2017-12-06T05:19:50.825Z,0.00
2017-12-06T05:20:53.450Z,0.00
2017-12-06T05:21:50.771Z,0.00
2017-12-06T05:22:51.457Z,0.00
2017-12-06T05:23:50.721Z,0.00
2017-12-06T05:24:50.718Z,0.00
2017-12-06T05:25:50.679Z,0.00
2017-12-06T05:26:50.663Z,0.00
2017-12-06T05:27:50.637Z,0.00
2017-12-06T05:28:50.606Z,0.00
2017-12-06T05:29:50.621Z,0.00
2017-12-06T05:30:50.575Z,0.00
2017-12-06T05:31:50.536Z,0.00
2017-12-06T05:32:50.522Z,0.00
2017-12-06T05:33:50.512Z,0.00
2017-12-06T05:34:50.465Z,0.00
2017-12-06T05:35:50.453Z,0.00
2017-12-06T05:36:50.447Z,0.00
2017-12-06T05:37:50.395Z,0.00
2017-12-06T05:38:50.382Z,0.00
2017-12-06T05:39:50.352Z,0.00
2017-12-06T05:40:50.332Z,0.00
2017-12-06T05:41:50.322Z,0.00
2017-12-06T05:42:50.295Z,0.00
2017-12-06T05:43:50.276Z,0.00
2017-12-06T05:44:50.241Z,0.00
2017-12-06T05:45:50.219Z,0.00
2017-12-06T05:46:50.209Z,0.00
2017-12-06T05:47:50.177Z,0.00
2017-12-06T05:48:50.154Z,0.00
2017-12-06T05:49:50.197Z,0.00
2017-12-06T05:50:50.131Z,0.00
2017-12-06T05:51:50.077Z,0.00
2017-12-06T05:52:50.058Z,0.00
2017-12-06T05:53:50.053Z,0.00
2017-12-06T05:54:50.019Z,0.00
2017-12-06T05:55:49.992Z,0.00
2017-12-06T05:56:49.975Z,0.00
2017-12-06T05:57:51.468Z,0.00
2017-12-06T05:58:49.918Z,0.00
2017-12-06T05:59:49.897Z,0.00
2017-12-06T06:00:49.886Z,0.00
2017-12-06T06:01:49.851Z,0.00
2017-12-06T06:02:49.841Z,0.00
2017-12-06T06:03:49.824Z,0.00
2017-12-06T06:04:49.793Z,0.00
2017-12-06T06:05:49.756Z,0.00
2017-12-06T06:06:49.741Z,0.00
2017-12-06T06:07:49.726Z,0.00
2017-12-06T06:08:49.696Z,0.00
2017-12-06T06:09:49.664Z,0.00
2017-12-06T06:10:52.457Z,0.00
2017-12-06T06:11:49.623Z,0.00
2017-12-06T06:12:49.598Z,0.00
2017-12-06T06:13:49.576Z,0.00
2017-12-06T06:14:53.492Z,0.00
2017-12-06T06:15:49.523Z,0.00
2017-12-06T06:16:49.509Z,0.00
2017-12-06T06:17:49.489Z,0.00
2017-12-06T06:18:49.469Z,0.00
2017-12-06T06:19:49.439Z,0.00
2017-12-06T06:20:49.427Z,0.00
2017-12-06T06:21:49.411Z,0.00
2017-12-06T06:22:49.367Z,0.00
2017-12-06T06:23:49.357Z,0.00
2017-12-06T06:24:49.348Z,0.00
2017-12-06T06:25:49.305Z,0.00
2017-12-06T06:26:49.283Z,0.00
2017-12-06T06:27:49.255Z,0.00
2017-12-06T06:28:49.239Z,0.00
2017-12-06T06:29:49.218Z,0.00
2017-12-06T06:30:49.187Z,0.00
2017-12-06T06:31:49.176Z,0.00
2017-12-06T06:32:52.974Z,0.00
2017-12-06T06:33:49.123Z,0.00
2017-12-06T06:34:49.092Z,0.00
2017-12-06T06:35:49.085Z,0.00
2017-12-06T06:36:49.045Z,0.00
2017-12-06T06:37:49.030Z,0.00
2017-12-06T06:38:49.021Z,0.00
2017-12-06T06:39:48.986Z,0.00
2017-12-06T06:40:51.489Z,0.00
2017-12-06T06:41:50.486Z,0.00
2017-12-06T06:42:48.906Z,0.00
2017-12-06T06:43:48.895Z,0.00
2017-12-06T06:44:48.871Z,0.00
2017-12-06T06:45:52.460Z,0.00
2017-12-06T06:46:48.846Z,0.00
2017-12-06T06:47:48.800Z,0.00
2017-12-06T06:48:48.786Z,0.00
2017-12-06T06:49:48.766Z,0.00
2017-12-06T06:50:48.736Z,0.00
2017-12-06T06:51:48.710Z,0.00
2017-12-06T06:52:48.706Z,0.00
2017-12-06T06:53:48.678Z,0.00
2017-12-06T06:54:51.477Z,0.00
2017-12-06T06:55:51.464Z,0.00
2017-12-06T06:56:48.596Z,0.00
2017-12-06T06:57:48.574Z,0.00
2017-12-06T06:58:48.552Z,0.00
2017-12-06T06:59:48.532Z,0.00
2017-12-06T07:00:48.503Z,0.00
2017-12-06T07:01:48.483Z,0.00
2017-12-06T07:02:49.984Z,0.00
2017-12-06T07:03:48.433Z,0.00
2017-12-06T07:04:50.983Z,0.00
2017-12-06T07:05:48.386Z,0.00
2017-12-06T07:06:48.366Z,0.00
2017-12-06T07:07:48.365Z,0.00
2017-12-06T07:08:48.336Z,0.00
2017-12-06T07:09:48.308Z,0.00
2017-12-06T07:10:48.295Z,0.00
2017-12-06T07:11:48.251Z,0.00
2017-12-06T07:12:49.990Z,0.00
2017-12-06T07:13:48.220Z,0.00
2017-12-06T07:14:48.183Z,0.00
2017-12-06T07:15:48.161Z,0.00
2017-12-06T07:16:48.153Z,0.00
2017-12-06T07:17:48.124Z,0.00
2017-12-06T07:18:48.091Z,0.00
2017-12-06T07:19:48.063Z,0.00
2017-12-06T07:20:50.968Z,0.00
2017-12-06T07:21:48.024Z,0.00
2017-12-06T07:22:47.998Z,0.00
2017-12-06T07:23:49.480Z,0.00
2017-12-06T07:24:47.982Z,0.00
2017-12-06T07:25:47.967Z,0.00
2017-12-06T07:26:49.509Z,0.00
2017-12-06T07:27:49.484Z,0.00
2017-12-06T07:28:47.868Z,0.00
2017-12-06T07:29:47.858Z,0.00
2017-12-06T07:30:47.819Z,0.00
2017-12-06T07:31:47.803Z,0.00
2017-12-06T07:32:47.781Z,0.00
2017-12-06T07:33:47.763Z,5.63
2017-12-06T07:34:47.734Z,5.63
2017-12-06T07:35:47.709Z,0.00
2017-12-06T07:36:47.691Z,0.00
2017-12-06T07:37:47.660Z,5.63
2017-12-06T07:38:47.632Z,5.63
2017-12-06T07:39:47.622Z,5.63
2017-12-06T07:40:47.601Z,5.63
2017-12-06T07:41:50.533Z,5.63
2017-12-06T07:42:47.551Z,5.63
2017-12-06T07:43:47.550Z,5.63
2017-12-06T07:44:47.532Z,5.63
2017-12-06T07:45:47.488Z,5.63
2017-12-06T07:46:47.479Z,5.63
2017-12-06T07:47:47.452Z,5.63
2017-12-06T07:48:47.407Z,5.63
2017-12-06T07:49:47.393Z,5.63
2017-12-06T07:50:47.370Z,5.63
2017-12-06T07:51:47.342Z,5.63
2017-12-06T07:52:47.333Z,5.63
2017-12-06T07:53:47.300Z,5.63
2017-12-06T07:54:47.289Z,5.63
2017-12-06T07:55:47.264Z,5.63
2017-12-06T07:56:47.311Z,5.63
2017-12-06T07:57:47.215Z,5.63
2017-12-06T07:58:47.195Z,5.63
2017-12-06T07:59:47.175Z,5.63
2017-12-06T08:00:47.136Z,11.25
2017-12-06T08:01:47.120Z,11.25
2017-12-06T08:02:47.112Z,11.25
2017-12-06T08:03:47.082Z,11.25
2017-12-06T08:04:47.054Z,11.25
2017-12-06T08:05:47.043Z,11.25
2017-12-06T08:06:46.997Z,11.25
2017-12-06T08:07:46.988Z,11.25
2017-12-06T08:08:46.985Z,11.25
2017-12-06T08:09:46.933Z,11.25
2017-12-06T08:10:46.908Z,11.25
2017-12-06T08:11:46.893Z,11.25
2017-12-06T08:12:49.483Z,11.25
2017-12-06T08:13:46.844Z,11.25
2017-12-06T08:14:49.485Z,11.25
2017-12-06T08:15:46.805Z,16.88
2017-12-06T08:16:46.780Z,16.88
2017-12-06T08:17:46.752Z,16.88
2017-12-06T08:18:46.751Z,16.88
2017-12-06T08:19:46.702Z,16.88
2017-12-06T08:20:48.484Z,16.88
2017-12-06T08:21:46.682Z,16.88
2017-12-06T08:22:46.681Z,16.88
2017-12-06T08:23:48.503Z,16.88
2017-12-06T08:24:49.480Z,16.88
2017-12-06T08:25:46.560Z,16.88
2017-12-06T08:26:46.552Z,16.88
2017-12-06T08:27:46.527Z,16.88
2017-12-06T08:28:46.511Z,16.88
2017-12-06T08:29:46.489Z,16.88
2017-12-06T08:30:46.454Z,16.88
2017-12-06T08:31:46.453Z,16.88
2017-12-06T08:32:46.426Z,16.88
2017-12-06T08:33:46.437Z,22.50
2017-12-06T08:34:48.991Z,22.50
2017-12-06T08:35:46.348Z,16.88
2017-12-06T08:36:46.353Z,16.88
2017-12-06T08:37:46.331Z,22.50
2017-12-06T08:38:46.291Z,22.50
2017-12-06T08:39:46.250Z,22.50
2017-12-06T08:40:47.999Z,22.50
2017-12-06T08:41:46.207Z,22.50
2017-12-06T08:42:46.190Z,22.50
2017-12-06T08:43:46.183Z,22.50
2017-12-06T08:44:48.009Z,22.50
2017-12-06T08:45:48.991Z,22.50
2017-12-06T08:46:46.097Z,22.50
2017-12-06T08:47:46.105Z,22.50
2017-12-06T08:48:46.055Z,22.50
2017-12-06T08:49:46.064Z,22.50
2017-12-06T08:50:46.032Z,22.50
2017-12-06T08:51:45.974Z,22.50
2017-12-06T08:52:45.965Z,22.50
2017-12-06T08:53:45.934Z,28.13
2017-12-06T08:54:48.510Z,28.13
2017-12-06T08:55:45.894Z,28.13
2017-12-06T08:56:45.875Z,28.13
2017-12-06T08:57:45.852Z,28.13
2017-12-06T08:58:45.818Z,28.13
2017-12-06T08:59:45.807Z,28.13
2017-12-06T09:00:48.526Z,28.13
2017-12-06T09:01:45.771Z,28.13
2017-12-06T09:02:45.731Z,28.13
2017-12-06T09:03:45.711Z,28.13
2017-12-06T09:04:45.712Z,28.13
2017-12-06T09:05:45.656Z,33.75
2017-12-06T09:06:45.656Z,33.75
2017-12-06T09:07:48.497Z,33.75
2017-12-06T09:08:45.597Z,28.13
2017-12-06T09:09:48.494Z,33.75
2017-12-06T09:10:45.561Z,33.75
2017-12-06T09:11:47.504Z,33.75
2017-12-06T09:12:45.504Z,28.13
2017-12-06T09:13:45.497Z,33.75
2017-12-06T09:14:45.461Z,28.13
2017-12-06T09:15:45.446Z,33.75
2017-12-06T09:16:45.423Z,33.75
2017-12-06T09:17:45.406Z,33.75
2017-12-06T09:18:45.386Z,33.75
2017-12-06T09:19:45.348Z,33.75
2017-12-06T09:20:45.357Z,33.75
2017-12-06T09:21:45.299Z,33.75
2017-12-06T09:22:45.275Z,33.75
2017-12-06T09:23:48.009Z,33.75
2017-12-06T09:24:48.004Z,39.38
2017-12-06T09:25:45.231Z,33.75
2017-12-06T09:26:45.188Z,33.75
2017-12-06T09:27:45.176Z,39.38
2017-12-06T09:28:45.160Z,39.38
2017-12-06T09:29:45.120Z,39.38
2017-12-06T09:30:49.005Z,39.38
2017-12-06T09:31:45.075Z,39.38
2017-12-06T09:32:45.083Z,39.38
2017-12-06T09:33:45.036Z,39.38
2017-12-06T09:34:45.010Z,39.38
2017-12-06T09:35:47.530Z,39.38
2017-12-06T09:36:44.964Z,33.75
2017-12-06T09:37:44.940Z,33.75
2017-12-06T09:38:44.921Z,33.75
2017-12-06T09:39:44.919Z,33.75
2017-12-06T09:40:44.880Z,39.38
2017-12-06T09:41:44.871Z,39.38
2017-12-06T09:42:44.852Z,39.38
2017-12-06T09:43:44.817Z,39.38
2017-12-06T09:44:47.533Z,39.38
2017-12-06T09:45:47.515Z,39.38
2017-12-06T09:46:44.746Z,39.38
2017-12-06T09:47:44.719Z,39.38
2017-12-06T09:48:44.696Z,39.38
2017-12-06T09:49:46.534Z,39.38
2017-12-06T09:50:44.671Z,45.00
2017-12-06T09:51:44.633Z,45.00
2017-12-06T09:52:44.602Z,45.00
2017-12-06T09:53:44.584Z,45.00
2017-12-06T09:54:44.563Z,45.00
2017-12-06T09:55:44.543Z,50.63
2017-12-06T09:56:44.527Z,45.00
2017-12-06T09:57:44.509Z,50.63
2017-12-06T09:58:47.009Z,45.00
2017-12-06T09:59:44.453Z,45.00
2017-12-06T10:00:44.439Z,50.63
2017-12-06T10:01:44.407Z,56.25
2017-12-06T10:02:44.399Z,50.63
2017-12-06T10:03:46.017Z,50.63
2017-12-06T10:04:44.359Z,50.63
2017-12-06T10:05:44.314Z,50.63
2017-12-06T10:06:44.285Z,56.25
2017-12-06T10:07:47.031Z,56.25
2017-12-06T10:08:44.275Z,61.88
2017-12-06T10:09:44.260Z,61.88
2017-12-06T10:10:44.208Z,61.88
2017-12-06T10:11:44.195Z,61.88
2017-12-06T10:12:44.160Z,61.88
2017-12-06T10:13:44.157Z,61.88
2017-12-06T10:14:44.127Z,61.88
2017-12-06T10:15:44.117Z,61.88
2017-12-06T10:16:44.076Z,61.88
2017-12-06T10:17:44.066Z,73.13
2017-12-06T10:18:44.023Z,67.50
2017-12-06T10:19:43.996Z,61.88
2017-12-06T10:20:43.987Z,67.50
2017-12-06T10:21:43.976Z,73.13
2017-12-06T10:22:47.512Z,73.13
2017-12-06T10:23:43.919Z,67.50
2017-12-06T10:24:46.508Z,73.13
2017-12-06T10:25:43.872Z,78.75
2017-12-06T10:26:43.851Z,78.75
2017-12-06T10:27:43.838Z,78.75
2017-12-06T10:28:43.812Z,78.75
2017-12-06T10:29:46.512Z,84.38
2017-12-06T10:30:43.760Z,78.75
2017-12-06T10:31:43.738Z,78.75
2017-12-06T10:32:43.709Z,90.00
2017-12-06T10:33:43.692Z,84.38
2017-12-06T10:34:43.668Z,78.75
2017-12-06T10:35:43.653Z,78.75
2017-12-06T10:36:43.634Z,73.13
2017-12-06T10:37:43.605Z,67.50
2017-12-06T10:38:43.576Z,73.13
2017-12-06T10:39:43.565Z,73.13
2017-12-06T10:40:43.537Z,78.75
2017-12-06T10:41:43.517Z,78.75
2017-12-06T10:42:43.486Z,78.75
2017-12-06T10:43:43.457Z,84.38
2017-12-06T10:44:46.018Z,84.38
2017-12-06T10:45:43.423Z,78.75
2017-12-06T10:46:43.420Z,73.13
2017-12-06T10:47:43.413Z,73.13
2017-12-06T10:48:43.355Z,73.13
2017-12-06T10:49:43.339Z,73.13
2017-12-06T10:50:43.304Z,78.75
2017-12-06T10:51:43.293Z,84.38
2017-12-06T10:52:43.266Z,90.00
2017-12-06T10:53:43.299Z,84.38
2017-12-06T10:54:43.225Z,78.75
2017-12-06T10:55:43.191Z,95.63
2017-12-06T10:56:43.175Z,84.38
2017-12-06T10:57:43.163Z,84.38
2017-12-06T10:58:43.133Z,84.38
2017-12-06T10:59:43.129Z,73.13
2017-12-06T11:00:43.094Z,78.75
2017-12-06T11:01:43.061Z,78.75
2017-12-06T11:02:43.055Z,84.38
2017-12-06T11:03:43.036Z,78.75
2017-12-06T11:04:43.027Z,84.38
2017-12-06T11:05:42.972Z,90.00
2017-12-06T11:06:42.963Z,95.63
2017-12-06T11:07:42.931Z,95.63
2017-12-06T11:08:42.911Z,84.38
2017-12-06T11:09:42.893Z,78.75
2017-12-06T11:10:42.882Z,73.13
2017-12-06T11:11:42.851Z,84.38
2017-12-06T11:12:42.827Z,84.38
2017-12-06T11:13:42.808Z,95.63
2017-12-06T11:14:42.788Z,84.38
2017-12-06T11:15:42.755Z,90.00
2017-12-06T11:16:42.737Z,84.38
2017-12-06T11:17:45.536Z,84.38
2017-12-06T11:18:42.697Z,73.13
2017-12-06T11:19:42.681Z,78.75
2017-12-06T11:20:44.550Z,84.38
2017-12-06T11:21:42.624Z,84.38
2017-12-06T11:22:42.611Z,78.75
2017-12-06T11:23:42.577Z,84.38
2017-12-06T11:24:42.554Z,84.38
2017-12-06T11:25:42.552Z,84.38
2017-12-06T11:26:42.515Z,84.38
2017-12-06T11:27:42.500Z,84.38
2017-12-06T11:28:42.470Z,84.38
2017-12-06T11:29:42.458Z,90.00
2017-12-06T11:30:42.427Z,90.00
2017-12-06T11:31:42.397Z,84.38
2017-12-06T11:32:42.381Z,90.00
2017-12-06T11:33:42.358Z,78.75
2017-12-06T11:34:42.342Z,78.75
2017-12-06T11:35:45.024Z,73.13
2017-12-06T11:36:45.044Z,67.50
2017-12-06T11:37:42.269Z,67.50
2017-12-06T11:38:50.531Z,67.50
2017-12-06T11:40:37.863Z,67.50
2017-12-06T11:41:37.624Z,73.13
2017-12-06T11:42:37.588Z,73.13
2017-12-06T11:43:37.829Z,67.50
2017-12-06T11:44:37.506Z,61.88
2017-12-06T11:45:37.507Z,61.88
2017-12-06T11:46:37.482Z,73.13
2017-12-06T11:47:37.448Z,67.50
2017-12-06T11:48:37.450Z,67.50
2017-12-06T11:49:37.404Z,67.50
2017-12-06T11:50:39.153Z,67.50
2017-12-06T11:51:37.349Z,67.50
2017-12-06T11:52:37.338Z,73.13
2017-12-06T11:53:37.308Z,67.50
2017-12-06T11:54:37.316Z,61.88
2017-12-06T11:55:37.271Z,61.88
2017-12-06T11:56:37.282Z,61.88
2017-12-06T11:57:37.242Z,61.88
2017-12-06T11:58:37.195Z,61.88
2017-12-06T11:59:37.196Z,56.25
2017-12-06T12:00:37.157Z,56.25
2017-12-06T12:01:37.147Z,56.25
2017-12-06T12:02:37.124Z,61.88
2017-12-06T12:03:37.092Z,61.88
2017-12-06T12:04:37.092Z,61.88
2017-12-06T12:05:37.053Z,61.88
2017-12-06T12:06:37.027Z,61.88
2017-12-06T12:07:37.007Z,61.88
2017-12-06T12:08:36.993Z,61.88
2017-12-06T12:09:36.955Z,61.88
2017-12-06T12:10:36.932Z,61.88
2017-12-06T12:11:36.922Z,56.25
2017-12-06T12:12:36.922Z,56.25
2017-12-06T12:13:36.907Z,56.25
2017-12-06T12:14:36.886Z,56.25
2017-12-06T12:15:36.832Z,61.88
2017-12-06T12:16:36.812Z,67.50
2017-12-06T12:17:36.798Z,78.75
2017-12-06T12:18:36.760Z,73.13
2017-12-06T12:19:36.758Z,73.13
2017-12-06T12:20:36.738Z,67.50
2017-12-06T12:21:36.697Z,61.88
2017-12-06T12:22:36.709Z,61.88
2017-12-06T12:23:36.689Z,61.88
2017-12-06T12:24:36.628Z,61.88
2017-12-06T12:25:36.628Z,73.13
2017-12-06T12:26:36.614Z,78.75
2017-12-06T12:27:36.564Z,84.38
2017-12-06T12:28:36.557Z,73.13
2017-12-06T12:29:36.518Z,61.88
2017-12-06T12:30:36.499Z,61.88
2017-12-06T12:31:36.502Z,61.88
2017-12-06T12:32:36.460Z,67.50
2017-12-06T12:33:36.452Z,67.50
2017-12-06T12:34:36.451Z,61.88
2017-12-06T12:35:36.388Z,50.63
2017-12-06T12:36:36.371Z,50.63
2017-12-06T12:37:36.343Z,50.63
2017-12-06T12:38:36.330Z,50.63
2017-12-06T12:39:36.304Z,50.63
2017-12-06T12:40:36.290Z,56.25
2017-12-06T12:41:36.247Z,61.88
2017-12-06T12:42:36.234Z,61.88
2017-12-06T12:43:36.248Z,56.25
2017-12-06T12:44:36.191Z,56.25
2017-12-06T12:45:36.215Z,50.63
2017-12-06T12:46:36.175Z,50.63
2017-12-06T12:47:36.131Z,50.63
2017-12-06T12:48:36.103Z,50.63
2017-12-06T12:49:36.079Z,50.63
2017-12-06T12:50:36.095Z,50.63
2017-12-06T12:51:36.047Z,45.00
2017-12-06T12:52:36.050Z,45.00
2017-12-06T12:53:35.999Z,45.00
2017-12-06T12:54:35.972Z,45.00
2017-12-06T12:55:35.938Z,45.00
2017-12-06T12:56:35.927Z,45.00
2017-12-06T12:57:35.963Z,45.00
2017-12-06T12:58:35.879Z,50.63
2017-12-06T12:59:35.860Z,50.63
2017-12-06T13:00:35.835Z,50.63
2017-12-06T13:01:35.828Z,50.63
2017-12-06T13:02:35.791Z,50.63
2017-12-06T13:03:35.784Z,50.63
2017-12-06T13:04:35.753Z,45.00
2017-12-06T13:05:35.746Z,45.00
2017-12-06T13:06:35.734Z,45.00
2017-12-06T13:07:35.711Z,50.63
2017-12-06T13:08:35.658Z,50.63
2017-12-06T13:09:35.657Z,50.63
2017-12-06T13:10:35.647Z,45.00